sensor_id;sensor_type;location;lat;lon;timestamp;P1;durP1;ratioP1;P2;durP2;ratioP2
4309;SDS011;2168;53.576;9.980;2024-01-30T00:00:27;0.30;;;0.30;;
4309;SDS011;2168;53.576;9.980;2024-01-30T00:02:53;0.40;;;0.40;;
4309;SDS011;2168;53.576;9.980;2024-01-30T00:05:18;0.40;;;0.40;;
4309;SDS011;2168;53.576;9.980;2024-01-30T00:07:43;0.47;;;0.47;;
4309;SDS011;2168;53.576;9.980;2024-01-30T00:10:08;0.40;;;0.40;;
4309;SDS011;2168;53.576;9.980;2024-01-30T00:12:34;0.30;;;0.30;;
4309;SDS011;2168;53.576;9.980;2024-01-30T00:14:59;0.30;;;0.30;;
4309;SDS011;2168;53.576;9.980;2024-01-30T00:17:24;0.50;;;0.50;;
4309;SDS011;2168;53.576;9.980;2024-01-30T00:19:51;0.40;;;0.40;;
4309;SDS011;2168;53.576;9.980;2024-01-30T00:22:16;0.50;;;0.50;;
4309;SDS011;2168;53.576;9.980;2024-01-30T00:24:41;0.40;;;0.40;;
4309;SDS011;2168;53.576;9.980;2024-01-30T00:27:07;0.33;;;0.33;;
4309;SDS011;2168;53.576;9.980;2024-01-30T00:29:32;0.40;;;0.40;;
4309;SDS011;2168;53.576;9.980;2024-01-30T00:31:59;0.40;;;0.40;;
4309;SDS011;2168;53.576;9.980;2024-01-30T00:34:24;0.30;;;0.30;;
4309;SDS011;2168;53.576;9.980;2024-01-30T00:36:49;0.40;;;0.40;;
4309;SDS011;2168;53.576;9.980;2024-01-30T00:39:14;0.30;;;0.30;;
4309;SDS011;2168;53.576;9.980;2024-01-30T00:41:40;0.30;;;0.30;;
4309;SDS011;2168;53.576;9.980;2024-01-30T00:44:06;0.30;;;0.30;;
4309;SDS011;2168;53.576;9.980;2024-01-30T00:46:31;0.30;;;0.30;;
4309;SDS011;2168;53.576;9.980;2024-01-30T00:48:56;0.40;;;0.40;;
4309;SDS011;2168;53.576;9.980;2024-01-30T00:51:21;0.40;;;0.40;;
4309;SDS011;2168;53.576;9.980;2024-01-30T00:53:47;0.30;;;0.30;;
4309;SDS011;2168;53.576;9.980;2024-01-30T00:56:12;0.37;;;0.37;;
4309;SDS011;2168;53.576;9.980;2024-01-30T00:58:37;0.50;;;0.50;;
4309;SDS011;2168;53.576;9.980;2024-01-30T01:01:02;0.40;;;0.40;;
4309;SDS011;2168;53.576;9.980;2024-01-30T01:03:28;0.40;;;0.40;;
4309;SDS011;2168;53.576;9.980;2024-01-30T01:05:53;0.40;;;0.40;;
4309;SDS011;2168;53.576;9.980;2024-01-30T01:08:18;0.30;;;0.30;;
4309;SDS011;2168;53.576;9.980;2024-01-30T01:10:43;0.30;;;0.30;;
4309;SDS011;2168;53.576;9.980;2024-01-30T01:13:09;0.30;;;0.30;;
4309;SDS011;2168;53.576;9.980;2024-01-30T01:15:34;0.40;;;0.40;;
4309;SDS011;2168;53.576;9.980;2024-01-30T01:18:00;0.40;;;0.40;;
4309;SDS011;2168;53.576;9.980;2024-01-30T01:20:25;0.50;;;0.50;;
4309;SDS011;2168;53.576;9.980;2024-01-30T01:22:50;0.30;;;0.30;;
4309;SDS011;2168;53.576;9.980;2024-01-30T01:25:17;0.40;;;0.40;;
4309;SDS011;2168;53.576;9.980;2024-01-30T01:27:42;0.30;;;0.30;;
4309;SDS011;2168;53.576;9.980;2024-01-30T01:30:09;0.40;;;0.40;;
4309;SDS011;2168;53.576;9.980;2024-01-30T01:32:35;0.40;;;0.40;;
4309;SDS011;2168;53.576;9.980;2024-01-30T01:35:01;0.40;;;0.40;;
4309;SDS011;2168;53.576;9.980;2024-01-30T01:37:27;0.30;;;0.30;;
4309;SDS011;2168;53.576;9.980;2024-01-30T01:39:52;0.40;;;0.40;;
4309;SDS011;2168;53.576;9.980;2024-01-30T01:42:17;0.40;;;0.40;;
4309;SDS011;2168;53.576;9.980;2024-01-30T01:44:43;0.30;;;0.30;;
4309;SDS011;2168;53.576;9.980;2024-01-30T01:47:08;0.33;;;0.33;;
4309;SDS011;2168;53.576;9.980;2024-01-30T01:49:33;0.50;;;0.50;;
4309;SDS011;2168;53.576;9.980;2024-01-30T01:51:58;0.30;;;0.30;;
4309;SDS011;2168;53.576;9.980;2024-01-30T01:54:24;0.30;;;0.30;;
4309;SDS011;2168;53.576;9.980;2024-01-30T01:56:50;0.40;;;0.40;;
4309;SDS011;2168;53.576;9.980;2024-01-30T01:59:16;0.30;;;0.30;;
4309;SDS011;2168;53.576;9.980;2024-01-30T02:01:42;0.40;;;0.40;;
4309;SDS011;2168;53.576;9.980;2024-01-30T02:04:08;0.30;;;0.30;;
4309;SDS011;2168;53.576;9.980;2024-01-30T02:06:34;0.30;;;0.30;;
4309;SDS011;2168;53.576;9.980;2024-01-30T02:08:59;0.30;;;0.30;;
4309;SDS011;2168;53.576;9.980;2024-01-30T02:11:24;0.40;;;0.40;;
4309;SDS011;2168;53.576;9.980;2024-01-30T02:13:50;0.30;;;0.30;;
4309;SDS011;2168;53.576;9.980;2024-01-30T02:16:15;0.40;;;0.40;;
4309;SDS011;2168;53.576;9.980;2024-01-30T02:18:42;0.37;;;0.37;;
4309;SDS011;2168;53.576;9.980;2024-01-30T02:21:10;0.40;;;0.40;;
4309;SDS011;2168;53.576;9.980;2024-01-30T02:23:36;0.40;;;0.40;;
4309;SDS011;2168;53.576;9.980;2024-01-30T02:26:01;0.20;;;0.20;;
4309;SDS011;2168;53.576;9.980;2024-01-30T02:28:26;0.30;;;0.30;;
4309;SDS011;2168;53.576;9.980;2024-01-30T02:30:52;0.30;;;0.30;;
4309;SDS011;2168;53.576;9.980;2024-01-30T02:33:17;0.30;;;0.30;;
4309;SDS011;2168;53.576;9.980;2024-01-30T02:35:43;0.40;;;0.40;;
4309;SDS011;2168;53.576;9.980;2024-01-30T02:38:08;0.30;;;0.30;;
4309;SDS011;2168;53.576;9.980;2024-01-30T02:40:33;0.37;;;0.37;;
4309;SDS011;2168;53.576;9.980;2024-01-30T02:42:59;0.30;;;0.30;;
4309;SDS011;2168;53.576;9.980;2024-01-30T02:45:24;0.40;;;0.40;;
4309;SDS011;2168;53.576;9.980;2024-01-30T02:47:49;0.30;;;0.30;;
4309;SDS011;2168;53.576;9.980;2024-01-30T02:50:15;0.40;;;0.40;;
4309;SDS011;2168;53.576;9.980;2024-01-30T02:52:41;0.40;;;0.40;;
4309;SDS011;2168;53.576;9.980;2024-01-30T02:55:08;0.40;;;0.40;;
4309;SDS011;2168;53.576;9.980;2024-01-30T02:57:33;0.33;;;0.33;;
4309;SDS011;2168;53.576;9.980;2024-01-30T02:59:59;0.37;;;0.37;;
4309;SDS011;2168;53.576;9.980;2024-01-30T03:02:24;0.30;;;0.30;;
4309;SDS011;2168;53.576;9.980;2024-01-30T03:04:49;0.30;;;0.30;;
4309;SDS011;2168;53.576;9.980;2024-01-30T03:07:15;0.30;;;0.30;;
4309;SDS011;2168;53.576;9.980;2024-01-30T03:09:41;0.30;;;0.30;;
4309;SDS011;2168;53.576;9.980;2024-01-30T03:12:06;0.40;;;0.40;;
4309;SDS011;2168;53.576;9.980;2024-01-30T03:14:31;0.40;;;0.40;;
4309;SDS011;2168;53.576;9.980;2024-01-30T03:16:57;0.40;;;0.40;;
4309;SDS011;2168;53.576;9.980;2024-01-30T03:19:22;0.30;;;0.30;;
4309;SDS011;2168;53.576;9.980;2024-01-30T03:21:47;0.30;;;0.30;;
4309;SDS011;2168;53.576;9.980;2024-01-30T03:24:12;0.27;;;0.27;;
4309;SDS011;2168;53.576;9.980;2024-01-30T03:26:38;0.40;;;0.40;;
4309;SDS011;2168;53.576;9.980;2024-01-30T03:29:03;0.30;;;0.30;;
4309;SDS011;2168;53.576;9.980;2024-01-30T03:31:28;0.30;;;0.30;;
4309;SDS011;2168;53.576;9.980;2024-01-30T03:33:53;0.30;;;0.30;;
4309;SDS011;2168;53.576;9.980;2024-01-30T03:36:18;0.40;;;0.40;;
4309;SDS011;2168;53.576;9.980;2024-01-30T03:38:44;0.30;;;0.30;;
4309;SDS011;2168;53.576;9.980;2024-01-30T03:41:09;0.30;;;0.30;;
4309;SDS011;2168;53.576;9.980;2024-01-30T03:43:35;0.40;;;0.40;;
4309;SDS011;2168;53.576;9.980;2024-01-30T03:46:00;0.20;;;0.20;;
4309;SDS011;2168;53.576;9.980;2024-01-30T03:48:26;0.40;;;0.40;;
4309;SDS011;2168;53.576;9.980;2024-01-30T03:50:51;0.40;;;0.40;;
4309;SDS011;2168;53.576;9.980;2024-01-30T03:53:17;0.30;;;0.30;;
4309;SDS011;2168;53.576;9.980;2024-01-30T03:55:42;0.40;;;0.40;;
4309;SDS011;2168;53.576;9.980;2024-01-30T03:58:07;0.30;;;0.30;;
4309;SDS011;2168;53.576;9.980;2024-01-30T04:00:32;0.40;;;0.40;;
4309;SDS011;2168;53.576;9.980;2024-01-30T04:02:58;0.30;;;0.30;;
4309;SDS011;2168;53.576;9.980;2024-01-30T04:05:23;0.20;;;0.20;;
4309;SDS011;2168;53.576;9.980;2024-01-30T04:07:48;0.40;;;0.40;;
4309;SDS011;2168;53.576;9.980;2024-01-30T04:10:13;0.30;;;0.30;;
4309;SDS011;2168;53.576;9.980;2024-01-30T04:12:38;0.40;;;0.40;;
4309;SDS011;2168;53.576;9.980;2024-01-30T04:15:04;0.30;;;0.30;;
4309;SDS011;2168;53.576;9.980;2024-01-30T04:17:29;0.60;;;0.60;;
4309;SDS011;2168;53.576;9.980;2024-01-30T04:19:54;0.30;;;0.30;;
4309;SDS011;2168;53.576;9.980;2024-01-30T04:22:20;0.30;;;0.30;;
4309;SDS011;2168;53.576;9.980;2024-01-30T04:24:45;0.50;;;0.50;;
4309;SDS011;2168;53.576;9.980;2024-01-30T04:27:10;0.27;;;0.27;;
4309;SDS011;2168;53.576;9.980;2024-01-30T04:29:35;0.30;;;0.30;;
4309;SDS011;2168;53.576;9.980;2024-01-30T04:32:01;0.30;;;0.30;;
4309;SDS011;2168;53.576;9.980;2024-01-30T04:34:26;0.30;;;0.30;;
4309;SDS011;2168;53.576;9.980;2024-01-30T04:36:51;0.40;;;0.40;;
4309;SDS011;2168;53.576;9.980;2024-01-30T04:39:16;0.30;;;0.30;;
4309;SDS011;2168;53.576;9.980;2024-01-30T04:41:42;0.40;;;0.40;;
4309;SDS011;2168;53.576;9.980;2024-01-30T04:44:07;0.53;;;0.53;;
4309;SDS011;2168;53.576;9.980;2024-01-30T04:46:32;0.37;;;0.37;;
4309;SDS011;2168;53.576;9.980;2024-01-30T04:48:59;0.30;;;0.30;;
4309;SDS011;2168;53.576;9.980;2024-01-30T04:51:24;0.30;;;0.30;;
4309;SDS011;2168;53.576;9.980;2024-01-30T04:53:50;0.30;;;0.30;;
4309;SDS011;2168;53.576;9.980;2024-01-30T04:56:15;0.40;;;0.40;;
4309;SDS011;2168;53.576;9.980;2024-01-30T04:58:40;0.37;;;0.37;;
4309;SDS011;2168;53.576;9.980;2024-01-30T05:01:05;0.50;;;0.50;;
4309;SDS011;2168;53.576;9.980;2024-01-30T05:03:34;0.50;;;0.50;;
4309;SDS011;2168;53.576;9.980;2024-01-30T05:06:00;0.30;;;0.30;;
4309;SDS011;2168;53.576;9.980;2024-01-30T05:08:25;0.30;;;0.30;;
4309;SDS011;2168;53.576;9.980;2024-01-30T05:10:50;0.37;;;0.37;;
4309;SDS011;2168;53.576;9.980;2024-01-30T05:13:15;0.27;;;0.27;;
4309;SDS011;2168;53.576;9.980;2024-01-30T05:15:41;0.30;;;0.30;;
4309;SDS011;2168;53.576;9.980;2024-01-30T05:18:06;0.37;;;0.37;;
4309;SDS011;2168;53.576;9.980;2024-01-30T05:20:31;0.33;;;0.33;;
4309;SDS011;2168;53.576;9.980;2024-01-30T05:22:56;0.30;;;0.30;;
4309;SDS011;2168;53.576;9.980;2024-01-30T05:25:22;0.37;;;0.37;;
4309;SDS011;2168;53.576;9.980;2024-01-30T05:27:48;0.23;;;0.23;;
4309;SDS011;2168;53.576;9.980;2024-01-30T05:30:13;0.33;;;0.33;;
4309;SDS011;2168;53.576;9.980;2024-01-30T05:32:39;0.30;;;0.30;;
4309;SDS011;2168;53.576;9.980;2024-01-30T05:35:04;0.40;;;0.40;;
4309;SDS011;2168;53.576;9.980;2024-01-30T05:37:29;0.30;;;0.30;;
4309;SDS011;2168;53.576;9.980;2024-01-30T05:39:55;0.30;;;0.30;;
4309;SDS011;2168;53.576;9.980;2024-01-30T05:42:20;0.30;;;0.30;;
4309;SDS011;2168;53.576;9.980;2024-01-30T05:44:45;0.20;;;0.20;;
4309;SDS011;2168;53.576;9.980;2024-01-30T05:47:10;0.40;;;0.40;;
4309;SDS011;2168;53.576;9.980;2024-01-30T05:49:36;0.30;;;0.30;;
4309;SDS011;2168;53.576;9.980;2024-01-30T05:52:03;0.40;;;0.40;;
4309;SDS011;2168;53.576;9.980;2024-01-30T05:54:28;0.50;;;0.50;;
4309;SDS011;2168;53.576;9.980;2024-01-30T05:56:54;0.40;;;0.40;;
4309;SDS011;2168;53.576;9.980;2024-01-30T05:59:19;0.30;;;0.30;;
4309;SDS011;2168;53.576;9.980;2024-01-30T06:01:47;0.23;;;0.23;;
4309;SDS011;2168;53.576;9.980;2024-01-30T06:04:13;0.40;;;0.40;;
4309;SDS011;2168;53.576;9.980;2024-01-30T06:06:38;0.40;;;0.40;;
4309;SDS011;2168;53.576;9.980;2024-01-30T06:09:03;0.43;;;0.43;;
4309;SDS011;2168;53.576;9.980;2024-01-30T06:11:29;0.40;;;0.40;;
4309;SDS011;2168;53.576;9.980;2024-01-30T06:13:54;0.40;;;0.40;;
4309;SDS011;2168;53.576;9.980;2024-01-30T06:16:19;0.50;;;0.50;;
4309;SDS011;2168;53.576;9.980;2024-01-30T06:18:46;0.30;;;0.30;;
4309;SDS011;2168;53.576;9.980;2024-01-30T06:21:11;0.50;;;0.50;;
4309;SDS011;2168;53.576;9.980;2024-01-30T06:23:36;0.30;;;0.30;;
4309;SDS011;2168;53.576;9.980;2024-01-30T06:26:02;0.50;;;0.50;;
4309;SDS011;2168;53.576;9.980;2024-01-30T06:28:27;0.30;;;0.30;;
4309;SDS011;2168;53.576;9.980;2024-01-30T06:30:52;0.40;;;0.40;;
4309;SDS011;2168;53.576;9.980;2024-01-30T06:33:17;0.37;;;0.37;;
4309;SDS011;2168;53.576;9.980;2024-01-30T06:35:42;0.30;;;0.30;;
4309;SDS011;2168;53.576;9.980;2024-01-30T06:38:08;0.50;;;0.50;;
4309;SDS011;2168;53.576;9.980;2024-01-30T06:40:34;0.30;;;0.30;;
4309;SDS011;2168;53.576;9.980;2024-01-30T06:42:59;0.30;;;0.30;;
4309;SDS011;2168;53.576;9.980;2024-01-30T06:45:24;0.33;;;0.33;;
4309;SDS011;2168;53.576;9.980;2024-01-30T06:47:49;0.30;;;0.30;;
4309;SDS011;2168;53.576;9.980;2024-01-30T06:50:15;0.40;;;0.40;;
4309;SDS011;2168;53.576;9.980;2024-01-30T06:52:40;0.30;;;0.30;;
4309;SDS011;2168;53.576;9.980;2024-01-30T06:55:05;0.20;;;0.20;;
4309;SDS011;2168;53.576;9.980;2024-01-30T06:57:31;0.40;;;0.40;;
4309;SDS011;2168;53.576;9.980;2024-01-30T06:59:56;0.50;;;0.50;;
4309;SDS011;2168;53.576;9.980;2024-01-30T07:02:21;0.70;;;0.70;;
4309;SDS011;2168;53.576;9.980;2024-01-30T07:04:47;0.40;;;0.40;;
4309;SDS011;2168;53.576;9.980;2024-01-30T07:07:12;0.40;;;0.40;;
4309;SDS011;2168;53.576;9.980;2024-01-30T07:09:38;0.50;;;0.50;;
4309;SDS011;2168;53.576;9.980;2024-01-30T07:12:04;0.30;;;0.30;;
4309;SDS011;2168;53.576;9.980;2024-01-30T07:14:29;0.30;;;0.30;;
4309;SDS011;2168;53.576;9.980;2024-01-30T07:16:54;0.63;;;0.63;;
4309;SDS011;2168;53.576;9.980;2024-01-30T07:19:19;0.40;;;0.40;;
4309;SDS011;2168;53.576;9.980;2024-01-30T07:21:44;0.30;;;0.30;;
4309;SDS011;2168;53.576;9.980;2024-01-30T07:24:11;0.40;;;0.40;;
4309;SDS011;2168;53.576;9.980;2024-01-30T07:26:36;0.47;;;0.47;;
4309;SDS011;2168;53.576;9.980;2024-01-30T07:29:01;0.50;;;0.50;;
4309;SDS011;2168;53.576;9.980;2024-01-30T07:31:27;0.50;;;0.50;;
4309;SDS011;2168;53.576;9.980;2024-01-30T07:33:52;0.40;;;0.40;;
4309;SDS011;2168;53.576;9.980;2024-01-30T07:36:18;0.40;;;0.40;;
4309;SDS011;2168;53.576;9.980;2024-01-30T07:38:43;0.40;;;0.40;;
4309;SDS011;2168;53.576;9.980;2024-01-30T07:41:08;0.30;;;0.30;;
4309;SDS011;2168;53.576;9.980;2024-01-30T07:43:33;0.60;;;0.60;;
4309;SDS011;2168;53.576;9.980;2024-01-30T07:45:59;0.40;;;0.40;;
4309;SDS011;2168;53.576;9.980;2024-01-30T07:48:25;0.50;;;0.50;;
4309;SDS011;2168;53.576;9.980;2024-01-30T07:50:51;0.40;;;0.40;;
4309;SDS011;2168;53.576;9.980;2024-01-30T07:53:16;0.23;;;0.23;;
4309;SDS011;2168;53.576;9.980;2024-01-30T07:55:41;0.60;;;0.60;;
4309;SDS011;2168;53.576;9.980;2024-01-30T07:58:08;0.50;;;0.50;;
4309;SDS011;2168;53.576;9.980;2024-01-30T08:00:33;0.50;;;0.50;;
4309;SDS011;2168;53.576;9.980;2024-01-30T08:02:59;0.50;;;0.50;;
4309;SDS011;2168;53.576;9.980;2024-01-30T08:05:24;0.47;;;0.47;;
4309;SDS011;2168;53.576;9.980;2024-01-30T08:07:49;0.40;;;0.40;;
4309;SDS011;2168;53.576;9.980;2024-01-30T08:10:15;0.30;;;0.30;;
4309;SDS011;2168;53.576;9.980;2024-01-30T08:12:40;0.30;;;0.30;;
4309;SDS011;2168;53.576;9.980;2024-01-30T08:15:06;0.27;;;0.27;;
4309;SDS011;2168;53.576;9.980;2024-01-30T08:17:31;0.20;;;0.20;;
4309;SDS011;2168;53.576;9.980;2024-01-30T08:19:56;0.30;;;0.30;;
4309;SDS011;2168;53.576;9.980;2024-01-30T08:22:22;0.37;;;0.37;;
4309;SDS011;2168;53.576;9.980;2024-01-30T08:24:47;0.40;;;0.40;;
4309;SDS011;2168;53.576;9.980;2024-01-30T08:27:12;0.40;;;0.40;;
4309;SDS011;2168;53.576;9.980;2024-01-30T08:29:38;0.50;;;0.50;;
4309;SDS011;2168;53.576;9.980;2024-01-30T08:32:04;0.33;;;0.33;;
4309;SDS011;2168;53.576;9.980;2024-01-30T08:34:29;0.40;;;0.40;;
4309;SDS011;2168;53.576;9.980;2024-01-30T08:36:54;0.50;;;0.50;;
4309;SDS011;2168;53.576;9.980;2024-01-30T08:39:20;0.50;;;0.50;;
4309;SDS011;2168;53.576;9.980;2024-01-30T08:41:45;0.50;;;0.50;;
4309;SDS011;2168;53.576;9.980;2024-01-30T08:44:10;0.40;;;0.40;;
4309;SDS011;2168;53.576;9.980;2024-01-30T08:46:36;0.20;;;0.20;;
4309;SDS011;2168;53.576;9.980;2024-01-30T08:49:01;0.60;;;0.60;;
4309;SDS011;2168;53.576;9.980;2024-01-30T08:51:26;0.47;;;0.47;;
4309;SDS011;2168;53.576;9.980;2024-01-30T08:53:51;0.60;;;0.60;;
4309;SDS011;2168;53.576;9.980;2024-01-30T08:56:18;0.40;;;0.40;;
4309;SDS011;2168;53.576;9.980;2024-01-30T08:58:44;0.53;;;0.53;;
4309;SDS011;2168;53.576;9.980;2024-01-30T09:01:09;0.53;;;0.53;;
4309;SDS011;2168;53.576;9.980;2024-01-30T09:03:34;0.60;;;0.60;;
4309;SDS011;2168;53.576;9.980;2024-01-30T09:06:00;0.70;;;0.70;;
4309;SDS011;2168;53.576;9.980;2024-01-30T09:08:25;0.50;;;0.50;;
4309;SDS011;2168;53.576;9.980;2024-01-30T09:10:50;0.30;;;0.30;;
4309;SDS011;2168;53.576;9.980;2024-01-30T09:13:15;0.50;;;0.50;;
4309;SDS011;2168;53.576;9.980;2024-01-30T09:15:41;1.10;;;1.10;;
4309;SDS011;2168;53.576;9.980;2024-01-30T09:18:07;0.50;;;0.50;;
4309;SDS011;2168;53.576;9.980;2024-01-30T09:20:32;0.60;;;0.60;;
4309;SDS011;2168;53.576;9.980;2024-01-30T09:22:58;0.60;;;0.60;;
4309;SDS011;2168;53.576;9.980;2024-01-30T09:25:23;0.60;;;0.60;;
4309;SDS011;2168;53.576;9.980;2024-01-30T09:27:48;0.70;;;0.70;;
4309;SDS011;2168;53.576;9.980;2024-01-30T09:30:14;0.60;;;0.60;;
4309;SDS011;2168;53.576;9.980;2024-01-30T09:32:39;1.10;;;1.10;;
4309;SDS011;2168;53.576;9.980;2024-01-30T09:35:04;0.60;;;0.60;;
4309;SDS011;2168;53.576;9.980;2024-01-30T09:37:30;0.50;;;0.50;;
4309;SDS011;2168;53.576;9.980;2024-01-30T09:39:55;0.67;;;0.67;;
4309;SDS011;2168;53.576;9.980;2024-01-30T09:42:26;0.60;;;0.60;;
4309;SDS011;2168;53.576;9.980;2024-01-30T09:44:53;0.53;;;0.53;;
4309;SDS011;2168;53.576;9.980;2024-01-30T09:47:18;0.53;;;0.53;;
4309;SDS011;2168;53.576;9.980;2024-01-30T09:49:44;0.50;;;0.50;;
4309;SDS011;2168;53.576;9.980;2024-01-30T09:52:09;0.50;;;0.50;;
4309;SDS011;2168;53.576;9.980;2024-01-30T09:54:34;0.60;;;0.60;;
4309;SDS011;2168;53.576;9.980;2024-01-30T09:57:00;0.50;;;0.50;;
4309;SDS011;2168;53.576;9.980;2024-01-30T09:59:25;1.03;;;1.03;;
4309;SDS011;2168;53.576;9.980;2024-01-30T10:01:50;0.70;;;0.70;;
4309;SDS011;2168;53.576;9.980;2024-01-30T10:04:16;0.50;;;0.50;;
4309;SDS011;2168;53.576;9.980;2024-01-30T10:06:41;0.50;;;0.50;;
4309;SDS011;2168;53.576;9.980;2024-01-30T10:09:06;0.40;;;0.40;;
4309;SDS011;2168;53.576;9.980;2024-01-30T10:11:32;0.53;;;0.53;;
4309;SDS011;2168;53.576;9.980;2024-01-30T10:13:57;0.57;;;0.57;;
4309;SDS011;2168;53.576;9.980;2024-01-30T10:16:22;0.60;;;0.60;;
4309;SDS011;2168;53.576;9.980;2024-01-30T10:18:47;0.60;;;0.60;;
4309;SDS011;2168;53.576;9.980;2024-01-30T10:21:12;0.60;;;0.60;;
4309;SDS011;2168;53.576;9.980;2024-01-30T10:23:38;0.70;;;0.70;;
4309;SDS011;2168;53.576;9.980;2024-01-30T10:26:07;0.70;;;0.70;;
4309;SDS011;2168;53.576;9.980;2024-01-30T10:28:32;0.50;;;0.50;;
4309;SDS011;2168;53.576;9.980;2024-01-30T10:30:58;1.23;;;1.23;;
4309;SDS011;2168;53.576;9.980;2024-01-30T10:33:28;0.90;;;0.90;;
4309;SDS011;2168;53.576;9.980;2024-01-30T10:36:00;0.70;;;0.70;;
4309;SDS011;2168;53.576;9.980;2024-01-30T10:38:26;0.70;;;0.70;;
4309;SDS011;2168;53.576;9.980;2024-01-30T10:40:56;0.43;;;0.43;;
4309;SDS011;2168;53.576;9.980;2024-01-30T10:43:21;0.80;;;0.80;;
4309;SDS011;2168;53.576;9.980;2024-01-30T10:45:48;0.50;;;0.50;;
4309;SDS011;2168;53.576;9.980;2024-01-30T10:48:14;0.70;;;0.70;;
4309;SDS011;2168;53.576;9.980;2024-01-30T10:50:41;0.70;;;0.70;;
4309;SDS011;2168;53.576;9.980;2024-01-30T10:53:07;0.80;;;0.80;;
4309;SDS011;2168;53.576;9.980;2024-01-30T10:55:33;0.63;;;0.63;;
4309;SDS011;2168;53.576;9.980;2024-01-30T10:57:58;0.60;;;0.60;;
4309;SDS011;2168;53.576;9.980;2024-01-30T11:00:24;1.25;;;1.25;;
4309;SDS011;2168;53.576;9.980;2024-01-30T11:02:51;0.80;;;0.80;;
4309;SDS011;2168;53.576;9.980;2024-01-30T11:05:23;0.70;;;0.70;;
4309;SDS011;2168;53.576;9.980;2024-01-30T11:07:50;0.60;;;0.60;;
4309;SDS011;2168;53.576;9.980;2024-01-30T11:10:15;0.73;;;0.73;;
4309;SDS011;2168;53.576;9.980;2024-01-30T11:12:41;0.80;;;0.80;;
4309;SDS011;2168;53.576;9.980;2024-01-30T11:15:09;0.90;;;0.90;;
4309;SDS011;2168;53.576;9.980;2024-01-30T11:17:53;1.10;;;1.10;;
4309;SDS011;2168;53.576;9.980;2024-01-30T11:20:25;0.87;;;0.87;;
4309;SDS011;2168;53.576;9.980;2024-01-30T11:22:51;0.77;;;0.77;;
4309;SDS011;2168;53.576;9.980;2024-01-30T11:25:17;1.30;;;1.30;;
4309;SDS011;2168;53.576;9.980;2024-01-30T11:27:43;0.70;;;0.70;;
4309;SDS011;2168;53.576;9.980;2024-01-30T11:30:09;1.17;;;1.17;;
4309;SDS011;2168;53.576;9.980;2024-01-30T11:32:34;0.93;;;0.93;;
4309;SDS011;2168;53.576;9.980;2024-01-30T11:34:59;1.10;;;1.10;;
4309;SDS011;2168;53.576;9.980;2024-01-30T11:37:25;1.47;;;1.47;;
4309;SDS011;2168;53.576;9.980;2024-01-30T11:39:51;0.83;;;0.83;;
4309;SDS011;2168;53.576;9.980;2024-01-30T11:42:16;0.80;;;0.80;;
4309;SDS011;2168;53.576;9.980;2024-01-30T11:44:45;0.90;;;0.90;;
4309;SDS011;2168;53.576;9.980;2024-01-30T11:47:11;0.80;;;0.80;;
4309;SDS011;2168;53.576;9.980;2024-01-30T11:49:36;0.90;;;0.90;;
4309;SDS011;2168;53.576;9.980;2024-01-30T11:52:01;0.60;;;0.60;;
4309;SDS011;2168;53.576;9.980;2024-01-30T11:54:26;1.40;;;1.40;;
4309;SDS011;2168;53.576;9.980;2024-01-30T11:56:52;0.70;;;0.70;;
4309;SDS011;2168;53.576;9.980;2024-01-30T11:59:17;0.80;;;0.80;;
4309;SDS011;2168;53.576;9.980;2024-01-30T12:01:42;0.60;;;0.60;;
4309;SDS011;2168;53.576;9.980;2024-01-30T12:04:07;0.97;;;0.97;;
4309;SDS011;2168;53.576;9.980;2024-01-30T12:06:36;1.20;;;1.20;;
4309;SDS011;2168;53.576;9.980;2024-01-30T12:09:01;0.80;;;0.80;;
4309;SDS011;2168;53.576;9.980;2024-01-30T12:11:29;0.80;;;0.80;;
4309;SDS011;2168;53.576;9.980;2024-01-30T12:13:55;0.90;;;0.90;;
4309;SDS011;2168;53.576;9.980;2024-01-30T12:16:20;0.80;;;0.80;;
4309;SDS011;2168;53.576;9.980;2024-01-30T12:18:46;0.70;;;0.70;;
4309;SDS011;2168;53.576;9.980;2024-01-30T12:21:11;1.10;;;1.10;;
4309;SDS011;2168;53.576;9.980;2024-01-30T12:23:36;1.50;;;1.50;;
4309;SDS011;2168;53.576;9.980;2024-01-30T12:26:01;0.73;;;0.73;;
4309;SDS011;2168;53.576;9.980;2024-01-30T12:28:28;0.90;;;0.90;;
4309;SDS011;2168;53.576;9.980;2024-01-30T12:30:55;1.00;;;1.00;;
4309;SDS011;2168;53.576;9.980;2024-01-30T12:33:20;0.90;;;0.90;;
4309;SDS011;2168;53.576;9.980;2024-01-30T12:35:46;0.60;;;0.60;;
4309;SDS011;2168;53.576;9.980;2024-01-30T12:38:12;0.67;;;0.67;;
4309;SDS011;2168;53.576;9.980;2024-01-30T12:40:38;0.90;;;0.90;;
4309;SDS011;2168;53.576;9.980;2024-01-30T12:43:03;0.90;;;0.90;;
4309;SDS011;2168;53.576;9.980;2024-01-30T12:45:28;1.20;;;1.20;;
4309;SDS011;2168;53.576;9.980;2024-01-30T12:47:55;0.80;;;0.80;;
4309;SDS011;2168;53.576;9.980;2024-01-30T12:50:20;0.60;;;0.60;;
4309;SDS011;2168;53.576;9.980;2024-01-30T12:52:45;0.57;;;0.57;;
4309;SDS011;2168;53.576;9.980;2024-01-30T12:55:10;0.90;;;0.90;;
4309;SDS011;2168;53.576;9.980;2024-01-30T12:57:36;0.40;;;0.40;;
4309;SDS011;2168;53.576;9.980;2024-01-30T13:00:01;1.30;;;1.30;;
4309;SDS011;2168;53.576;9.980;2024-01-30T13:02:27;0.50;;;0.50;;
4309;SDS011;2168;53.576;9.980;2024-01-30T13:04:59;1.30;;;1.30;;
4309;SDS011;2168;53.576;9.980;2024-01-30T13:07:25;1.07;;;1.07;;
4309;SDS011;2168;53.576;9.980;2024-01-30T13:09:50;0.80;;;0.80;;
4309;SDS011;2168;53.576;9.980;2024-01-30T13:12:15;0.70;;;0.70;;
4309;SDS011;2168;53.576;9.980;2024-01-30T13:14:40;0.80;;;0.80;;
4309;SDS011;2168;53.576;9.980;2024-01-30T13:17:06;0.80;;;0.80;;
4309;SDS011;2168;53.576;9.980;2024-01-30T13:19:31;1.00;;;1.00;;
4309;SDS011;2168;53.576;9.980;2024-01-30T13:21:56;0.80;;;0.80;;
4309;SDS011;2168;53.576;9.980;2024-01-30T13:24:21;1.63;;;1.63;;
4309;SDS011;2168;53.576;9.980;2024-01-30T13:26:46;0.90;;;0.90;;
4309;SDS011;2168;53.576;9.980;2024-01-30T13:29:12;0.60;;;0.60;;
4309;SDS011;2168;53.576;9.980;2024-01-30T13:31:37;0.80;;;0.80;;
4309;SDS011;2168;53.576;9.980;2024-01-30T13:34:04;0.90;;;0.90;;
4309;SDS011;2168;53.576;9.980;2024-01-30T13:36:30;0.57;;;0.57;;
4309;SDS011;2168;53.576;9.980;2024-01-30T13:38:55;1.20;;;1.20;;
4309;SDS011;2168;53.576;9.980;2024-01-30T13:41:20;0.63;;;0.63;;
4309;SDS011;2168;53.576;9.980;2024-01-30T13:43:47;0.50;;;0.50;;
4309;SDS011;2168;53.576;9.980;2024-01-30T13:46:13;0.90;;;0.90;;
4309;SDS011;2168;53.576;9.980;2024-01-30T13:48:38;1.10;;;1.10;;
4309;SDS011;2168;53.576;9.980;2024-01-30T13:51:03;1.13;;;1.13;;
4309;SDS011;2168;53.576;9.980;2024-01-30T13:53:29;1.00;;;1.00;;
4309;SDS011;2168;53.576;9.980;2024-01-30T13:55:54;0.87;;;0.87;;
4309;SDS011;2168;53.576;9.980;2024-01-30T13:58:20;1.10;;;1.10;;
4309;SDS011;2168;53.576;9.980;2024-01-30T14:00:45;0.90;;;0.90;;
4309;SDS011;2168;53.576;9.980;2024-01-30T14:03:10;0.87;;;0.87;;
4309;SDS011;2168;53.576;9.980;2024-01-30T14:05:35;0.97;;;0.97;;
4309;SDS011;2168;53.576;9.980;2024-01-30T14:08:01;1.03;;;1.03;;
4309;SDS011;2168;53.576;9.980;2024-01-30T14:10:26;0.97;;;0.97;;
4309;SDS011;2168;53.576;9.980;2024-01-30T14:12:51;0.90;;;0.90;;
4309;SDS011;2168;53.576;9.980;2024-01-30T14:15:17;0.70;;;0.70;;
4309;SDS011;2168;53.576;9.980;2024-01-30T14:17:45;1.80;;;1.80;;
4309;SDS011;2168;53.576;9.980;2024-01-30T14:20:13;0.80;;;0.80;;
4309;SDS011;2168;53.576;9.980;2024-01-30T14:22:38;1.10;;;1.10;;
4309;SDS011;2168;53.576;9.980;2024-01-30T14:25:04;1.33;;;1.33;;
4309;SDS011;2168;53.576;9.980;2024-01-30T14:27:30;1.27;;;1.27;;
4309;SDS011;2168;53.576;9.980;2024-01-30T14:29:55;0.70;;;0.70;;
4309;SDS011;2168;53.576;9.980;2024-01-30T14:32:21;1.00;;;1.00;;
4309;SDS011;2168;53.576;9.980;2024-01-30T14:34:46;0.70;;;0.70;;
4309;SDS011;2168;53.576;9.980;2024-01-30T14:37:11;0.87;;;0.87;;
4309;SDS011;2168;53.576;9.980;2024-01-30T14:39:36;1.27;;;1.27;;
4309;SDS011;2168;53.576;9.980;2024-01-30T14:42:02;1.20;;;1.20;;
4309;SDS011;2168;53.576;9.980;2024-01-30T14:44:27;0.80;;;0.80;;
4309;SDS011;2168;53.576;9.980;2024-01-30T14:46:53;2.33;;;2.33;;
4309;SDS011;2168;53.576;9.980;2024-01-30T14:49:18;0.60;;;0.60;;
4309;SDS011;2168;53.576;9.980;2024-01-30T14:51:43;0.70;;;0.70;;
4309;SDS011;2168;53.576;9.980;2024-01-30T14:54:08;0.80;;;0.80;;
4309;SDS011;2168;53.576;9.980;2024-01-30T14:56:33;0.90;;;0.90;;
4309;SDS011;2168;53.576;9.980;2024-01-30T14:58:59;0.90;;;0.90;;
4309;SDS011;2168;53.576;9.980;2024-01-30T15:01:25;0.80;;;0.80;;
4309;SDS011;2168;53.576;9.980;2024-01-30T15:03:50;0.60;;;0.60;;